Time;durP1;ratioP1;P1;durP2;ratioP2;P2;SDS_P1;SDS_P2;PMS_P1;PMS_P2;Temp;Humidity;BMP_temperature;BMP_pressure;BME280_temperature;BME280_humidity;BME280_pressure;Samples;Min_cycle;Max_cycle;Signal;HPM_P1;HPM_P2
2020/12/12 00:00:37;;;;;;;32.73;11.47;;;;;;;;;;10235088;28;20098;-66
2020/12/12 00:05:34;;;;;;;35.67;13.00;;;;;;;;;;10186439;28;20042;-67
2020/12/12 00:10:32;;;;;;;33.67;13.07;;;;;;;;;;10182935;28;20436;-67
2020/12/12 00:15:30;;;;;;;31.90;11.40;;;;;;;;;;10204776;28;20034;-65
2020/12/12 00:20:28;;;;;;;21.67;10.80;;;;;;;;;;10199495;28;20129;-64
2020/12/12 00:25:25;;;;;;;32.70;13.07;;;;;;;;;;10199499;28;20569;-67
2020/12/12 00:30:23;;;;;;;35.27;13.57;;;;;;;;;;10203325;28;20042;-66
2020/12/12 00:35:20;;;;;;;38.30;15.60;;;;;;;;;;10210907;28;20042;-65
2020/12/12 00:40:18;;;;;;;30.53;15.10;;;;;;;;;;10197491;28;20121;-67
2020/12/12 00:45:15;;;;;;;35.97;13.27;;;;;;;;;;10200537;28;20047;-66
2020/12/12 00:50:12;;;;;;;34.60;15.17;;;;;;;;;;10201398;28;20044;-67
2020/12/12 00:55:10;;;;;;;32.97;15.23;;;;;;;;;;10198197;28;21173;-65
2020/12/12 01:00:07;;;;;;;36.90;14.47;;;;;;;;;;10208725;28;20427;-66
2020/12/12 01:05:05;;;;;;;46.57;16.73;;;;;;;;;;10207670;28;20038;-66
2020/12/12 01:10:03;;;;;;;41.15;16.63;;;;;;;;;;10211045;28;20046;-64
2020/12/12 01:15:01;;;;;;;48.00;17.03;;;;;;;;;;10210702;28;20076;-64
2020/12/12 01:19:58;;;;;;;40.90;14.53;;;;;;;;;;10209580;28;20034;-65
2020/12/12 01:24:56;;;;;;;43.92;15.00;;;;;;;;;;10208056;28;20129;-65
2020/12/12 01:29:54;;;;;;;38.53;16.00;;;;;;;;;;10204447;28;20029;-65
2020/12/12 01:34:51;;;;;;;39.37;14.63;;;;;;;;;;10205330;28;20022;-65
2020/12/12 01:39:49;;;;;;;39.90;14.13;;;;;;;;;;10211927;28;20023;-65
2020/12/12 01:44:46;;;;;;;43.73;17.30;;;;;;;;;;10213711;28;20049;-64
2020/12/12 01:49:43;;;;;;;42.40;14.90;;;;;;;;;;10207069;28;20031;-64
2020/12/12 01:54:43;;;;;;;49.13;15.53;;;;;;;;;;10194521;28;20034;-64
2020/12/12 01:59:41;;;;;;;46.65;16.25;;;;;;;;;;10192781;28;20026;-64
2020/12/12 02:04:41;;;;;;;41.20;16.00;;;;;;;;;;10190582;28;20472;-64
2020/12/12 02:09:39;;;;;;;42.08;16.15;;;;;;;;;;10184136;28;20037;-65
2020/12/12 02:14:38;;;;;;;44.40;15.98;;;;;;;;;;10213529;28;20026;-63
2020/12/12 02:19:36;;;;;;;41.08;13.20;;;;;;;;;;10206756;28;20049;-63
2020/12/12 02:24:33;;;;;;;40.53;16.42;;;;;;;;;;10250315;28;20038;-62
2020/12/12 02:29:46;;;;;;;53.57;17.17;;;;;;;;;;10235272;28;20522;-63
2020/12/12 02:34:43;;;;;;;49.95;17.25;;;;;;;;;;10202613;28;20038;-62
2020/12/12 02:39:41;;;;;;;53.07;15.70;;;;;;;;;;10206230;28;20183;-63
2020/12/12 02:44:38;;;;;;;39.07;14.07;;;;;;;;;;10204616;28;20695;-62
2020/12/12 02:49:36;;;;;;;40.77;15.13;;;;;;;;;;10253889;28;20672;-64
2020/12/12 02:54:33;;;;;;;38.13;16.27;;;;;;;;;;10206876;28;20185;-63
2020/12/12 02:59:30;;;;;;;39.70;15.50;;;;;;;;;;10200835;28;20227;-64
2020/12/12 03:04:28;;;;;;;41.57;16.27;;;;;;;;;;10208609;28;20112;-65
2020/12/12 03:09:25;;;;;;;39.63;14.30;;;;;;;;;;10212624;28;20501;-63
2020/12/12 03:14:22;;;;;;;38.27;15.47;;;;;;;;;;10206748;28;20626;-62
2020/12/12 03:19:20;;;;;;;42.43;16.57;;;;;;;;;;10205721;28;20511;-62
2020/12/12 03:24:17;;;;;;;47.47;17.70;;;;;;;;;;10187200;28;20046;-62
2020/12/12 03:29:15;;;;;;;36.27;14.67;;;;;;;;;;10193798;28;20042;-63
2020/12/12 03:34:12;;;;;;;31.83;13.37;;;;;;;;;;10207991;28;20034;-63
2020/12/12 03:39:09;;;;;;;35.53;14.63;;;;;;;;;;10201612;28;20050;-62
2020/12/12 03:44:07;;;;;;;36.30;15.90;;;;;;;;;;10198232;28;20051;-63
2020/12/12 03:49:04;;;;;;;36.03;13.20;;;;;;;;;;10199407;28;20428;-64
2020/12/12 03:54:02;;;;;;;43.87;15.97;;;;;;;;;;10206333;28;20516;-62
2020/12/12 03:58:59;;;;;;;45.00;16.93;;;;;;;;;;10175906;28;20045;-63
2020/12/12 04:03:57;;;;;;;34.03;12.33;;;;;;;;;;10196372;28;20035;-63
2020/12/12 04:08:54;;;;;;;37.63;14.47;;;;;;;;;;10188732;28;20035;-62
2020/12/12 04:13:51;;;;;;;42.67;15.97;;;;;;;;;;10195239;28;20022;-63
2020/12/12 04:18:49;;;;;;;36.77;14.57;;;;;;;;;;10211552;28;20042;-62
2020/12/12 04:23:46;;;;;;;43.07;16.77;;;;;;;;;;10197470;28;20046;-63
2020/12/12 04:28:44;;;;;;;40.00;15.77;;;;;;;;;;10201775;28;20500;-63
2020/12/12 04:33:41;;;;;;;46.00;16.63;;;;;;;;;;10198943;28;20581;-63
2020/12/12 04:38:38;;;;;;;27.83;13.83;;;;;;;;;;10203652;28;20121;-63
2020/12/12 04:43:38;;;;;;;42.23;15.97;;;;;;;;;;10204769;28;20031;-63
2020/12/12 04:48:35;;;;;;;39.45;17.25;;;;;;;;;;10203546;28;20220;-62
2020/12/12 04:53:33;;;;;;;25.87;11.30;;;;;;;;;;10197092;28;20759;-63
2020/12/12 04:58:32;;;;;;;29.80;12.23;;;;;;;;;;10197522;28;20385;-64
2020/12/12 05:03:31;;;;;;;40.67;16.67;;;;;;;;;;10181719;28;20031;-63
2020/12/12 05:08:29;;;;;;;44.90;17.00;;;;;;;;;;10181300;28;20031;-63
2020/12/12 05:13:30;;;;;;;44.13;14.80;;;;;;;;;;10197090;28;20042;-65
2020/12/12 05:18:27;;;;;;;40.17;15.73;;;;;;;;;;10208792;28;20073;-63
2020/12/12 05:23:25;;;;;;;41.53;16.87;;;;;;;;;;10227558;28;20129;-64
2020/12/12 05:28:23;;;;;;;48.60;16.97;;;;;;;;;;10203336;28;20046;-64
2020/12/12 05:33:25;;;;;;;42.63;15.93;;;;;;;;;;10223512;23;20060;-63
2020/12/12 05:38:22;;;;;;;41.13;13.05;;;;;;;;;;10263727;28;20037;-65
2020/12/12 05:43:20;;;;;;;45.63;15.67;;;;;;;;;;10283834;28;20068;-63
2020/12/12 05:48:17;;;;;;;36.27;12.60;;;;;;;;;;10295230;28;20025;-63
2020/12/12 05:53:15;;;;;;;43.80;16.27;;;;;;;;;;10275246;28;20034;-63
2020/12/12 05:58:14;;;;;;;40.80;15.07;;;;;;;;;;10284608;28;20030;-65
2020/12/12 06:03:24;;;;;;;35.80;14.85;;;;;;;;;;10296665;28;20034;-63
2020/12/12 06:08:32;;;;;;;37.22;13.93;;;;;;;;;;10282857;28;20099;-63
2020/12/12 06:13:36;;;;;;;48.00;16.50;;;;;;;;;;10279947;28;20064;-63
2020/12/12 06:18:52;;;;;;;36.17;13.95;;;;;;;;;;10284225;28;20499;-63
2020/12/12 06:23:49;;;;;;;49.47;16.45;;;;;;;;;;10272349;28;20073;-62
2020/12/12 06:28:47;;;;;;;50.37;16.33;;;;;;;;;;10289637;28;20116;-64
2020/12/12 06:33:51;;;;;;;46.10;14.90;;;;;;;;;;10291600;28;20033;-64
2020/12/12 06:38:48;;;;;;;46.70;16.80;;;;;;;;;;10295822;28;20446;-65
2020/12/12 06:43:54;;;;;;;37.03;15.30;;;;;;;;;;10295072;28;20030;-64
2020/12/12 06:49:07;;;;;;;37.75;13.82;;;;;;;;;;10289284;28;20499;-64
2020/12/12 06:54:08;;;;;;;45.22;17.42;;;;;;;;;;10288937;28;20158;-64
2020/12/12 06:59:24;;;;;;;42.47;14.15;;;;;;;;;;10278787;28;20550;-65
2020/12/12 07:04:26;;;;;;;34.30;12.40;;;;;;;;;;10289698;28;20072;-64
2020/12/12 07:09:25;;;;;;;56.03;20.45;;;;;;;;;;10278041;28;20405;-64
2020/12/12 07:14:24;;;;;;;46.40;20.95;;;;;;;;;;10290279;28;20694;-64
2020/12/12 07:19:38;;;;;;;39.50;16.15;;;;;;;;;;10284404;28;20030;-65
2020/12/12 07:24:36;;;;;;;40.50;15.95;;;;;;;;;;10265445;28;20129;-64
2020/12/12 07:29:33;;;;;;;48.80;17.48;;;;;;;;;;10273469;28;20583;-64
2020/12/12 07:34:31;;;;;;;39.37;17.53;;;;;;;;;;10278246;28;20128;-64
2020/12/12 07:39:35;;;;;;;44.17;16.90;;;;;;;;;;10273126;28;20048;-64
2020/12/12 07:44:33;;;;;;;37.63;15.00;;;;;;;;;;10266878;28;20033;-64
2020/12/12 07:49:31;;;;;;;44.33;16.97;;;;;;;;;;10279200;28;20041;-64
2020/12/12 07:54:32;;;;;;;34.47;14.52;;;;;;;;;;10285613;28;20037;-64
2020/12/12 07:59:31;;;;;;;50.88;18.58;;;;;;;;;;10277424;28;20041;-65
2020/12/12 08:04:28;;;;;;;46.47;17.58;;;;;;;;;;10278064;28;20041;-64
2020/12/12 08:09:25;;;;;;;46.57;16.03;;;;;;;;;;10272281;28;20036;-64
2020/12/12 08:14:23;;;;;;;43.40;16.37;;;;;;;;;;10277732;28;20038;-63
2020/12/12 08:19:20;;;;;;;53.53;16.63;;;;;;;;;;10274034;28;20041;-64
2020/12/12 08:24:18;;;;;;;40.23;15.93;;;;;;;;;;10239789;28;20503;-64
2020/12/12 08:29:15;;;;;;;38.37;14.17;;;;;;;;;;10282934;28;20099;-64
2020/12/12 08:34:18;;;;;;;32.77;13.97;;;;;;;;;;10263012;28;20588;-64
2020/12/12 08:39:17;;;;;;;54.25;16.35;;;;;;;;;;10279787;28;20037;-63
2020/12/12 08:44:24;;;;;;;41.38;15.80;;;;;;;;;;10287656;28;20048;-63
2020/12/12 08:49:22;;;;;;;44.17;14.10;;;;;;;;;;10269894;28;20038;-64
2020/12/12 08:54:19;;;;;;;50.20;18.87;;;;;;;;;;10277860;28;20511;-64
2020/12/12 08:59:18;;;;;;;39.73;14.60;;;;;;;;;;10252013;28;20280;-63
2020/12/12 09:04:20;;;;;;;52.83;18.42;;;;;;;;;;10289256;28;20503;-64
2020/12/12 09:09:31;;;;;;;62.28;19.88;;;;;;;;;;10285554;28;20041;-64
2020/12/12 09:14:29;;;;;;;52.08;20.25;;;;;;;;;;10269987;28;20120;-64
2020/12/12 09:19:27;;;;;;;65.47;19.75;;;;;;;;;;10273645;28;20038;-63
2020/12/12 09:24:25;;;;;;;39.70;15.30;;;;;;;;;;10289043;28;20052;-63
2020/12/12 09:29:22;;;;;;;48.03;16.13;;;;;;;;;;10275491;28;20036;-63
2020/12/12 09:34:20;;;;;;;31.93;12.20;;;;;;;;;;10279676;28;20049;-63
2020/12/12 09:39:18;;;;;;;34.93;14.30;;;;;;;;;;10276058;28;20037;-63
2020/12/12 09:44:15;;;;;;;48.33;17.23;;;;;;;;;;10296122;28;20284;-64
2020/12/12 09:49:13;;;;;;;48.10;15.93;;;;;;;;;;10271635;28;20034;-63
2020/12/12 09:54:10;;;;;;;33.40;13.80;;;;;;;;;;10237422;28;20071;-64
2020/12/12 09:59:07;;;;;;;46.10;16.97;;;;;;;;;;10288611;28;20048;-63
2020/12/12 10:04:05;;;;;;;40.43;16.13;;;;;;;;;;10289714;28;20044;-63
2020/12/12 10:09:02;;;;;;;32.30;12.70;;;;;;;;;;10279598;28;20116;-64
2020/12/12 10:14:00;;;;;;;47.17;17.50;;;;;;;;;;10274630;28;20587;-64
2020/12/12 10:18:57;;;;;;;45.07;16.47;;;;;;;;;;10286681;28;20503;-63
2020/12/12 10:23:54;;;;;;;41.23;15.47;;;;;;;;;;10278202;28;20029;-64
2020/12/12 10:28:52;;;;;;;40.83;14.50;;;;;;;;;;10275338;28;20030;-64
2020/12/12 10:33:49;;;;;;;40.43;16.80;;;;;;;;;;10282198;28;20740;-63
2020/12/12 10:38:46;;;;;;;33.67;11.90;;;;;;;;;;10273947;28;20044;-64
2020/12/12 10:43:44;;;;;;;21.07;9.10;;;;;;;;;;10277143;28;20411;-64
2020/12/12 10:48:41;;;;;;;38.53;16.07;;;;;;;;;;10273392;28;20592;-64
2020/12/12 10:53:39;;;;;;;38.67;13.50;;;;;;;;;;10263720;28;20103;-63
2020/12/12 10:58:36;;;;;;;17.33;7.83;;;;;;;;;;10287477;28;20047;-64
2020/12/12 11:03:34;;;;;;;46.47;16.77;;;;;;;;;;10272280;28;20099;-64
2020/12/12 11:08:31;;;;;;;40.07;14.57;;;;;;;;;;10262628;28;20026;-64
2020/12/12 11:13:28;;;;;;;29.07;12.20;;;;;;;;;;10278578;28;20041;-64
2020/12/12 11:18:26;;;;;;;40.53;14.47;;;;;;;;;;10270009;28;20140;-64
2020/12/12 11:23:23;;;;;;;37.63;17.70;;;;;;;;;;10264318;28;20037;-63
2020/12/12 11:28:21;;;;;;;29.60;11.50;;;;;;;;;;10282988;28;20030;-63
2020/12/12 11:33:18;;;;;;;28.57;11.30;;;;;;;;;;10277848;28;20411;-62
2020/12/12 11:38:21;;;;;;;44.67;15.30;;;;;;;;;;10275032;28;20087;-64
2020/12/12 11:48:16;;;;;;;44.63;14.67;;;;;;;;;;10283954;28;20392;-63
2020/12/12 11:53:14;;;;;;;35.87;15.00;;;;;;;;;;10251341;28;20453;-63
2020/12/12 11:58:11;;;;;;;39.50;14.73;;;;;;;;;;10284549;28;20064;-63
2020/12/12 12:03:08;;;;;;;39.27;14.53;;;;;;;;;;10275690;28;20045;-62
2020/12/12 12:08:12;;;;;;;45.50;17.57;;;;;;;;;;10288385;28;20033;-63
2020/12/12 12:13:10;;;;;;;37.70;15.38;;;;;;;;;;10264887;28;20033;-63
2020/12/12 12:18:07;;;;;;;29.10;8.93;;;;;;;;;;10268110;28;20042;-63
2020/12/12 12:23:05;;;;;;;37.47;15.90;;;;;;;;;;10247596;28;20045;-63
2020/12/12 12:28:02;;;;;;;37.93;13.77;;;;;;;;;;10264050;28;20411;-63
2020/12/12 12:32:59;;;;;;;41.20;16.30;;;;;;;;;;10271663;28;20037;-63
2020/12/12 12:37:57;;;;;;;24.87;11.63;;;;;;;;;;10262654;28;20060;-63
2020/12/12 12:42:57;;;;;;;27.90;11.67;;;;;;;;;;10289484;28;20415;-63
2020/12/12 12:47:54;;;;;;;20.38;9.55;;;;;;;;;;10280356;28;20036;-64
2020/12/12 12:52:51;;;;;;;39.77;14.63;;;;;;;;;;10278160;28;20037;-64
2020/12/12 12:57:49;;;;;;;39.53;15.33;;;;;;;;;;10284952;28;20172;-63
2020/12/12 13:02:46;;;;;;;31.53;13.97;;;;;;;;;;10294349;28;20041;-63
2020/12/12 13:07:44;;;;;;;36.63;14.73;;;;;;;;;;10261717;28;20458;-63
2020/12/12 13:12:41;;;;;;;21.97;11.23;;;;;;;;;;10258546;28;20044;-64
2020/12/12 13:17:39;;;;;;;23.73;11.50;;;;;;;;;;10279321;28;20041;-65
2020/12/12 13:22:36;;;;;;;34.97;12.23;;;;;;;;;;10279526;28;20652;-64
2020/12/12 13:27:34;;;;;;;45.43;14.70;;;;;;;;;;10276964;28;20407;-63
2020/12/12 13:32:31;;;;;;;38.93;12.70;;;;;;;;;;10271809;28;20838;-63
2020/12/12 13:37:28;;;;;;;42.67;16.43;;;;;;;;;;10285144;28;20507;-63
2020/12/12 13:42:26;;;;;;;40.57;14.17;;;;;;;;;;10278779;28;20034;-64
2020/12/12 13:47:23;;;;;;;52.83;18.00;;;;;;;;;;10267243;28;20090;-64
2020/12/12 13:52:21;;;;;;;40.83;14.03;;;;;;;;;;10272601;28;20022;-63
2020/12/12 13:57:18;;;;;;;38.43;15.07;;;;;;;;;;10285099;28;20597;-64
2020/12/12 14:02:15;;;;;;;40.90;13.83;;;;;;;;;;10277487;28;20037;-63
2020/12/12 14:07:27;;;;;;;32.00;13.27;;;;;;;;;;10284314;28;20776;-63
2020/12/12 14:22:58;;;;;;;39.28;17.42;;;;;;;;;;10285778;28;20037;-64
2020/12/12 14:33:11;;;;;;;35.35;14.27;;;;;;;;;;10268368;28;20423;-64
2020/12/12 14:38:09;;;;;;;28.53;12.33;;;;;;;;;;10287002;28;20064;-63
2020/12/12 14:43:06;;;;;;;38.57;15.10;;;;;;;;;;10297837;28;20041;-63
2020/12/12 14:48:04;;;;;;;33.77;13.87;;;;;;;;;;10282952;28;20036;-64
2020/12/12 14:53:02;;;;;;;30.27;14.37;;;;;;;;;;10291097;28;20103;-64
2020/12/12 14:58:00;;;;;;;30.98;12.10;;;;;;;;;;10280929;28;20725;-64
2020/12/12 15:02:57;;;;;;;31.13;10.70;;;;;;;;;;10281361;28;20064;-64
2020/12/12 15:07:55;;;;;;;27.90;10.57;;;;;;;;;;10282897;28;20423;-64
2020/12/12 15:12:53;;;;;;;19.48;8.98;;;;;;;;;;10277387;28;20025;-64
2020/12/12 15:17:50;;;;;;;33.03;15.67;;;;;;;;;;10277809;28;20033;-61
2020/12/12 15:22:47;;;;;;;28.73;13.70;;;;;;;;;;10271764;28;20036;-64
2020/12/12 15:27:45;;;;;;;16.70;8.27;;;;;;;;;;10270849;28;20026;-63
2020/12/12 15:32:44;;;;;;;39.23;14.87;;;;;;;;;;10280755;28;20037;-63
2020/12/12 15:37:41;;;;;;;35.40;14.23;;;;;;;;;;10259803;28;20519;-64
2020/12/12 15:42:38;;;;;;;21.60;8.90;;;;;;;;;;10277337;28;20525;-63
2020/12/12 15:47:37;;;;;;;21.33;9.33;;;;;;;;;;10272851;28;20660;-62
2020/12/12 15:52:34;;;;;;;22.02;8.88;;;;;;;;;;10264413;28;20040;-63
2020/12/12 15:57:32;;;;;;;29.60;11.77;;;;;;;;;;10277421;28;20030;-62
2020/12/12 16:02:29;;;;;;;29.00;12.60;;;;;;;;;;10272308;28;20330;-63
2020/12/12 16:07:27;;;;;;;41.43;13.60;;;;;;;;;;10286903;28;20057;-64
2020/12/12 16:12:28;;;;;;;36.07;12.63;;;;;;;;;;10279757;28;20034;-61
2020/12/12 16:17:26;;;;;;;13.13;7.07;;;;;;;;;;10274211;28;20104;-63
2020/12/12 16:22:24;;;;;;;27.98;12.00;;;;;;;;;;10281347;28;20025;-64
2020/12/12 16:27:21;;;;;;;15.50;6.93;;;;;;;;;;10276375;28;20071;-62
2020/12/12 16:32:19;;;;;;;29.07;10.50;;;;;;;;;;10269374;28;20055;-63
2020/12/12 16:37:17;;;;;;;39.10;15.70;;;;;;;;;;10275207;28;20030;-64
2020/12/12 16:42:16;;;;;;;38.60;14.57;;;;;;;;;;10274039;28;20396;-62
2020/12/12 16:47:14;;;;;;;31.00;11.70;;;;;;;;;;10276128;28;20038;-63
2020/12/12 16:52:13;;;;;;;34.65;16.10;;;;;;;;;;10265741;28;20404;-62
2020/12/12 16:57:11;;;;;;;19.83;9.43;;;;;;;;;;10275915;28;20495;-63
2020/12/12 17:02:09;;;;;;;40.38;14.80;;;;;;;;;;10264009;28;20044;-63
2020/12/12 17:07:07;;;;;;;34.77;15.53;;;;;;;;;;10288543;28;20049;-63
2020/12/12 17:12:06;;;;;;;31.73;12.73;;;;;;;;;;10257766;28;20029;-62
2020/12/12 17:17:03;;;;;;;23.63;9.85;;;;;;;;;;10266677;28;20029;-63
2020/12/12 17:22:06;;;;;;;23.30;10.20;;;;;;;;;;10271285;28;20033;-63
2020/12/12 17:27:03;;;;;;;28.58;9.63;;;;;;;;;;10284741;28;20041;-63
2020/12/12 17:32:01;;;;;;;15.67;7.43;;;;;;;;;;10248102;28;20917;-63
2020/12/12 17:36:58;;;;;;;32.00;12.03;;;;;;;;;;10251334;28;20041;-63
2020/12/12 17:41:56;;;;;;;26.97;13.17;;;;;;;;;;10287479;28;20124;-63
2020/12/12 17:46:57;;;;;;;38.00;12.93;;;;;;;;;;10289119;28;20136;-64
2020/12/12 17:51:54;;;;;;;33.42;12.27;;;;;;;;;;10279824;28;20603;-61
2020/12/12 17:56:52;;;;;;;39.60;15.77;;;;;;;;;;10271211;28;20556;-62
2020/12/12 18:01:50;;;;;;;39.28;16.55;;;;;;;;;;10267967;28;20112;-60
2020/12/12 18:06:47;;;;;;;47.30;17.20;;;;;;;;;;10278757;28;20021;-64
2020/12/12 18:11:45;;;;;;;36.63;14.77;;;;;;;;;;10284784;28;20083;-61
2020/12/12 18:16:43;;;;;;;34.37;13.63;;;;;;;;;;10263135;28;20033;-62
2020/12/12 18:21:40;;;;;;;39.25;16.63;;;;;;;;;;10288872;28;20037;-63
2020/12/12 18:26:40;;;;;;;37.37;17.43;;;;;;;;;;10280734;28;20530;-62
2020/12/12 18:31:38;;;;;;;33.25;13.98;;;;;;;;;;10276134;28;20085;-62
2020/12/12 18:36:35;;;;;;;27.43;12.40;;;;;;;;;;10278100;28;20127;-65
2020/12/12 18:41:33;;;;;;;28.57;11.90;;;;;;;;;;10281253;28;20041;-63
2020/12/12 18:46:32;;;;;;;33.70;15.70;;;;;;;;;;10267287;28;20042;-65
2020/12/12 18:51:35;;;;;;;36.40;15.82;;;;;;;;;;10261429;28;20049;-63
2020/12/12 18:56:37;;;;;;;38.63;14.23;;;;;;;;;;10270650;28;20076;-62
2020/12/12 19:01:38;;;;;;;35.90;13.20;;;;;;;;;;10264419;28;20531;-63
2020/12/12 19:06:36;;;;;;;48.17;17.90;;;;;;;;;;10280707;28;20053;-63
2020/12/12 19:11:37;;;;;;;35.97;15.27;;;;;;;;;;10257372;28;20037;-62
2020/12/12 19:16:35;;;;;;;41.42;18.10;;;;;;;;;;10272779;28;20514;-61
2020/12/12 19:21:35;;;;;;;37.50;18.60;;;;;;;;;;10280290;28;20094;-63
2020/12/12 19:26:33;;;;;;;24.48;10.73;;;;;;;;;;10253781;28;20068;-64
2020/12/12 19:31:30;;;;;;;38.20;16.50;;;;;;;;;;10277594;28;20057;-60
2020/12/12 19:36:28;;;;;;;39.13;15.33;;;;;;;;;;10256202;28;20041;-62
2020/12/12 19:41:25;;;;;;;17.73;8.67;;;;;;;;;;10268403;28;20049;-62
2020/12/12 19:46:24;;;;;;;39.37;15.93;;;;;;;;;;10269665;28;20395;-62
2020/12/12 19:51:22;;;;;;;39.10;15.52;;;;;;;;;;10273532;28;20288;-63
2020/12/12 19:56:19;;;;;;;;;;;;;;;;;;10286875;28;20037;-62
2020/12/12 20:01:17;;;;;;;35.67;16.55;;;;;;;;;;10272555;28;19964;-61
2020/12/12 20:06:15;;;;;;;31.43;13.57;;;;;;;;;;10273459;28;20038;-58
2020/12/12 20:11:12;;;;;;;34.15;14.63;;;;;;;;;;10255519;28;20155;-61
2020/12/12 20:16:10;;;;;;;40.17;15.07;;;;;;;;;;10278534;28;20610;-63
2020/12/12 20:21:07;;;;;;;32.63;14.37;;;;;;;;;;10279158;28;20124;-62
2020/12/12 20:26:05;;;;;;;27.73;13.30;;;;;;;;;;10247696;28;20037;-62
2020/12/12 20:31:03;;;;;;;13.20;6.40;;;;;;;;;;10274221;28;20034;-63
2020/12/12 20:36:00;;;;;;;29.77;11.63;;;;;;;;;;10273718;28;20288;-62
2020/12/12 20:40:59;;;;;;;35.63;14.73;;;;;;;;;;10267955;28;20052;-62
2020/12/12 20:45:56;;;;;;;29.98;12.10;;;;;;;;;;10277857;28;20115;-61
2020/12/12 20:50:53;;;;;;;34.87;16.47;;;;;;;;;;10277360;28;20399;-61
2020/12/12 20:55:51;;;;;;;31.03;15.23;;;;;;;;;;10275570;28;20501;-63
2020/12/12 21:00:48;;;;;;;29.53;12.63;;;;;;;;;;10279895;28;20037;-63
2020/12/12 21:05:46;;;;;;;31.47;13.27;;;;;;;;;;10268178;28;20119;-61
2020/12/12 21:10:43;;;;;;;30.47;12.97;;;;;;;;;;10272503;28;20026;-63
2020/12/12 21:15:41;;;;;;;28.98;13.13;;;;;;;;;;10279260;28;20045;-61
2020/12/12 21:20:39;;;;;;;25.90;11.37;;;;;;;;;;10272185;28;20638;-63
2020/12/12 21:25:36;;;;;;;24.03;12.87;;;;;;;;;;10256375;28;20398;-62
2020/12/12 21:30:34;;;;;;;31.47;12.83;;;;;;;;;;10260005;28;20560;-63
2020/12/12 21:35:31;;;;;;;37.47;18.40;;;;;;;;;;10255120;28;20174;-62
2020/12/12 21:40:29;;;;;;;29.53;14.00;;;;;;;;;;10280636;28;20543;-63
2020/12/12 21:45:26;;;;;;;20.63;10.57;;;;;;;;;;10287064;28;20037;-64
2020/12/12 21:50:33;;;;;;;23.30;12.23;;;;;;;;;;10282529;28;20030;-63
2020/12/12 21:55:31;;;;;;;43.72;16.30;;;;;;;;;;10263904;28;20048;-65
2020/12/12 22:00:29;;;;;;;33.40;14.85;;;;;;;;;;10234366;28;22101;-64
2020/12/12 22:10:24;;;;;;;32.90;12.80;;;;;;;;;;10274450;28;20056;-65
2020/12/12 22:15:22;;;;;;;29.03;12.10;;;;;;;;;;10268837;28;20538;-65
2020/12/12 22:20:22;;;;;;;25.08;9.02;;;;;;;;;;10274735;28;20040;-64
2020/12/12 22:25:20;;;;;;;28.60;11.88;;;;;;;;;;10276832;28;20128;-63
2020/12/12 22:30:18;;;;;;;22.55;10.10;;;;;;;;;;10270925;28;20025;-59
2020/12/12 22:35:17;;;;;;;30.87;12.80;;;;;;;;;;10272964;28;20049;-63
2020/12/12 22:40:16;;;;;;;24.15;8.95;;;;;;;;;;10276021;28;20277;-63
2020/12/12 22:45:15;;;;;;;22.80;10.90;;;;;;;;;;10277515;28;20040;-61
2020/12/12 22:50:13;;;;;;;20.30;9.52;;;;;;;;;;10257922;28;20034;-62
2020/12/12 22:55:10;;;;;;;30.95;12.52;;;;;;;;;;10283848;28;20045;-64
2020/12/12 23:00:28;;;;;;;20.50;9.37;;;;;;;;;;10277135;28;20155;-63
2020/12/12 23:05:27;;;;;;;24.42;11.85;;;;;;;;;;10273248;28;20033;-61
2020/12/12 23:10:24;;;;;;;;;;;;;;;;;;10267777;28;20030;-61
2020/12/12 23:15:23;;;;;;;25.92;9.50;;;;;;;;;;10265679;28;19939;-63
2020/12/12 23:20:21;;;;;;;23.58;11.75;;;;;;;;;;10275169;28;20033;-61
2020/12/12 23:25:20;;;;;;;29.30;12.43;;;;;;;;;;10254137;28;20427;-62
2020/12/12 23:30:18;;;;;;;28.90;11.57;;;;;;;;;;10264992;28;20038;-64
2020/12/12 23:35:15;;;;;;;30.73;15.07;;;;;;;;;;10256993;28;20132;-62
2020/12/12 23:40:14;;;;;;;33.33;12.70;;;;;;;;;;10249360;28;20525;-62
2020/12/12 23:45:11;;;;;;;23.15;10.10;;;;;;;;;;10264528;28;20050;-62
2020/12/12 23:50:09;;;;;;;26.23;10.23;;;;;;;;;;10259864;28;20054;-63
2020/12/12 23:55:07;;;;;;;36.60;15.80;;;;;;;;;;10268167;28;20105;-64
